Time;durP1;ratioP1;P1;durP2;ratioP2;P2;SDS_P1;SDS_P2;PMS_P1;PMS_P2;Temp;Humidity;BMP_temperature;BMP_pressure;BME280_temperature;BME280_humidity;BME280_pressure;Samples;Min_cycle;Max_cycle;Signal;HPM_P1;HPM_P2
2023/02/14 00:00:09;;;;;;;10.38;6.53;;;5.10;85.40;;;;;;5055594;28;20033;-52
2023/02/14 00:02:34;;;;;;;8.52;5.50;;;5.10;85.60;;;;;;5054753;28;20021;-55
2023/02/14 00:05:00;;;;;;;8.23;5.88;;;5.20;85.60;;;;;;5054737;28;20044;-55
2023/02/14 00:07:25;;;;;;;7.95;5.63;;;5.20;85.60;;;;;;5054789;28;20081;-63
2023/02/14 00:09:51;;;;;;;7.53;5.43;;;5.20;85.50;;;;;;5054960;28;20029;-62
2023/02/14 00:12:17;;;;;;;7.70;5.80;;;5.20;85.50;;;;;;5054672;28;20033;-63
2023/02/14 00:17:27;;;;;;;5.95;4.75;;;5.20;85.40;;;;;;5054567;28;20064;-62
2023/02/14 00:19:53;;;;;;;10.43;6.85;;;5.20;85.40;;;;;;5055119;28;20061;-62
2023/02/14 00:22:18;;;;;;;8.60;6.72;;;5.20;85.40;;;;;;5055011;28;20052;-63
2023/02/14 00:24:44;;;;;;;7.40;5.97;;;5.20;85.60;;;;;;5054605;28;20032;-63
2023/02/14 00:27:10;;;;;;;7.85;5.35;;;5.20;85.50;;;;;;5054872;28;20033;-56
2023/02/14 00:29:35;;;;;;;7.90;6.65;;;5.20;85.50;;;;;;5054248;28;20025;-54
2023/02/14 00:32:01;;;;;;;7.05;5.93;;;5.20;85.80;;;;;;5054371;28;20391;-62
2023/02/14 00:34:27;;;;;;;8.68;6.13;;;5.20;85.80;;;;;;5053990;28;20029;-63
2023/02/14 00:36:53;;;;;;;8.82;6.55;;;5.20;85.80;;;;;;5054877;28;20040;-63
2023/02/14 00:39:19;;;;;;;8.85;6.10;;;5.20;85.80;;;;;;5054667;28;20456;-62
2023/02/14 00:41:45;;;;;;;8.85;6.03;;;5.20;85.80;;;;;;5036905;28;20033;-62
2023/02/14 00:44:12;;;;;;;7.93;5.65;;;5.20;85.80;;;;;;5054458;28;20116;-63
2023/02/14 00:46:39;;;;;;;7.70;6.00;;;5.20;85.70;;;;;;5053474;28;20035;-63
2023/02/14 00:49:05;;;;;;;8.82;6.47;;;5.20;85.70;;;;;;5054327;28;20028;-63
2023/02/14 00:51:30;;;;;;;7.07;6.05;;;5.20;85.70;;;;;;5054003;28;20037;-60
2023/02/14 00:53:56;;;;;;;8.90;7.03;;;5.20;85.80;;;;;;5054777;28;20074;-60
2023/02/14 00:56:22;;;;;;;7.93;6.28;;;5.20;85.90;;;;;;5053836;28;20060;-60
2023/02/14 00:58:48;;;;;;;8.82;5.75;;;5.20;86.00;;;;;;5053713;28;20029;-60
2023/02/14 01:01:15;;;;;;;8.52;5.70;;;5.20;85.80;;;;;;5054118;28;20582;-50
2023/02/14 01:03:40;;;;;;;7.88;5.72;;;5.20;85.70;;;;;;5052935;28;20415;-49
2023/02/14 01:06:07;;;;;;;6.20;4.95;;;5.20;85.80;;;;;;5054310;28;20029;-56
2023/02/14 01:08:33;;;;;;;8.05;5.82;;;5.20;85.70;;;;;;5053554;28;20025;-54
2023/02/14 01:11:10;;;;;;;8.55;5.57;;;5.20;85.60;;;;;;5054625;28;20040;-63
2023/02/14 01:13:36;;;;;;;8.00;6.40;;;5.30;85.70;;;;;;5054244;28;20028;-63
2023/02/14 01:16:09;;;;;;;7.13;5.65;;;5.20;85.70;;;;;;5053530;28;20390;-63
2023/02/14 01:18:35;;;;;;;8.15;5.90;;;5.30;85.70;;;;;;5054278;28;20037;-62
2023/02/14 01:21:22;;;;;;;6.40;5.50;;;5.20;85.70;;;;;;5054399;28;20029;-62
2023/02/14 01:23:50;;;;;;;7.53;5.70;;;5.20;85.70;;;;;;5053625;28;20067;-62
2023/02/14 01:26:16;;;;;;;7.55;5.13;;;5.20;85.60;;;;;;5054349;28;20029;-55
2023/02/14 01:28:44;;;;;;;7.70;5.50;;;5.20;85.60;;;;;;5053995;28;20371;-55
2023/02/14 01:31:11;;;;;;;7.65;6.22;;;5.30;85.60;;;;;;5054242;28;20110;-62
2023/02/14 01:33:38;;;;;;;6.93;5.35;;;5.20;85.50;;;;;;5053616;28;20024;-63
2023/02/14 01:36:04;;;;;;;6.45;5.03;;;5.30;85.50;;;;;;5053476;28;20367;-54
2023/02/14 01:38:30;;;;;;;7.32;5.35;;;5.30;85.50;;;;;;5053876;28;20033;-55
2023/02/14 01:40:56;;;;;;;6.43;5.30;;;5.30;85.40;;;;;;5053998;28;20048;-63
2023/02/14 01:43:22;;;;;;;6.47;5.13;;;5.30;85.40;;;;;;5053496;28;20025;-63
2023/02/14 01:45:47;;;;;;;7.90;5.95;;;5.30;85.30;;;;;;5053915;28;20158;-54
2023/02/14 01:48:14;;;;;;;9.07;6.13;;;5.30;85.40;;;;;;5053286;28;20120;-55
2023/02/14 01:50:43;;;;;;;8.45;5.93;;;5.30;85.40;;;;;;5053389;28;20060;-63
2023/02/14 01:53:15;;;;;;;6.18;5.20;;;5.30;85.40;;;;;;5053833;28;20456;-63
2023/02/14 01:55:45;;;;;;;9.10;6.50;;;5.30;85.30;;;;;;5053573;28;20379;-65
2023/02/14 01:58:23;;;;;;;7.30;5.32;;;5.30;85.50;;;;;;5053580;28;20482;-64
2023/02/14 02:00:56;;;;;;;7.95;6.10;;;5.30;85.70;;;;;;5052946;28;20465;-60
2023/02/14 02:03:26;;;;;;;7.47;5.95;;;5.30;85.60;;;;;;5053409;28;20048;-60
2023/02/14 02:05:56;;;;;;;8.90;5.60;;;5.20;85.60;;;;;;5053737;28;20475;-64
2023/02/14 02:08:22;;;;;;;7.70;5.72;;;5.20;85.80;;;;;;5053277;28;20102;-63
2023/02/14 02:10:47;;;;;;;6.88;5.30;;;5.20;85.70;;;;;;5053739;28;20467;-55
2023/02/14 02:13:18;;;;;;;6.10;4.93;;;5.30;85.70;;;;;;5053359;28;20032;-55
2023/02/14 02:15:58;;;;;;;7.22;5.57;;;5.30;85.80;;;;;;5056128;28;20025;-63
2023/02/14 02:18:49;;;;;;;8.93;6.63;;;5.30;85.50;;;;;;5057093;28;20059;-63
2023/02/14 02:21:26;;;;;;;7.37;6.17;;;5.30;85.60;;;;;;5057375;28;20071;-61
2023/02/14 02:24:16;;;;;;;8.18;6.60;;;5.20;85.70;;;;;;5056695;28;20037;-60
2023/02/14 02:26:48;;;;;;;6.97;5.43;;;5.30;85.70;;;;;;5056957;28;20451;-51
2023/02/14 02:29:32;;;;;;;7.47;5.95;;;5.30;85.80;;;;;;5056533;28;20033;-51
2023/02/14 02:32:29;;;;;;;7.45;5.53;;;5.20;85.70;;;;;;5056530;28;20087;-52
2023/02/14 02:35:09;;;;;;;7.60;5.57;;;5.30;85.70;;;;;;5056434;28;20033;-52
2023/02/14 02:37:43;;;;;;;7.47;5.57;;;5.20;85.60;;;;;;5057065;28;20104;-61
2023/02/14 02:40:59;;;;;;;7.50;5.35;;;5.30;85.70;;;;;;5056633;28;20037;-60
2023/02/14 02:43:52;;;;;;;7.50;5.57;;;5.30;85.60;;;;;;5051535;28;20044;-60
2023/02/14 02:46:48;;;;;;;6.75;5.95;;;5.30;85.70;;;;;;5056370;28;20436;-63
2023/02/14 02:59:00;;;;;;;7.63;6.03;;;5.30;85.30;;;;;;5056191;28;20044;-53
2023/02/14 03:01:31;;;;;;;6.53;5.03;;;5.30;85.10;;;;;;5055686;28;20376;-52
2023/02/14 03:06:46;;;;;;;6.70;4.68;;;5.30;85.00;;;;;;5055820;28;20068;-52
2023/02/14 03:09:19;;;;;;;5.47;4.65;;;5.30;85.00;;;;;;5055750;28;20117;-50
2023/02/14 03:12:03;;;;;;;7.57;4.97;;;5.40;85.00;;;;;;5047546;28;20029;-51
2023/02/14 03:14:49;;;;;;;6.50;5.15;;;5.30;84.80;;;;;;5036072;28;20034;-53
2023/02/14 03:17:52;;;;;;;6.47;4.93;;;5.30;84.80;;;;;;5036272;28;20021;-48
2023/02/14 03:20:17;;;;;;;5.25;4.75;;;5.40;84.60;;;;;;5035934;28;20025;-48
2023/02/14 03:23:03;;;;;;;6.45;5.05;;;5.40;84.60;;;;;;5035883;28;20049;-50
2023/02/14 03:25:59;;;;;;;5.85;5.10;;;5.40;84.40;;;;;;5035003;28;20100;-51
2023/02/14 03:28:43;;;;;;;6.45;4.90;;;5.40;84.20;;;;;;5035735;28;20120;-51
2023/02/14 03:31:26;;;;;;;5.95;4.80;;;5.40;84.00;;;;;;5036586;28;20077;-46
2023/02/14 03:33:54;;;;;;;7.13;4.93;;;5.40;84.20;;;;;;5035845;28;20449;-48
2023/02/14 03:36:30;;;;;;;6.30;4.75;;;5.40;84.10;;;;;;5035925;28;20033;-48
2023/02/14 03:39:18;;;;;;;8.68;6.10;;;5.40;84.60;;;;;;5017895;28;20040;-50
2023/02/14 03:42:02;;;;;;;6.78;5.38;;;5.40;83.90;;;;;;5049019;28;20138;-51
2023/02/14 03:44:31;;;;;;;6.65;5.32;;;5.40;84.00;;;;;;5055633;28;20025;-49
2023/02/14 03:47:19;;;;;;;6.53;5.10;;;5.40;84.00;;;;;;5055380;28;20107;-51
2023/02/14 03:49:56;;;;;;;8.45;5.47;;;5.40;84.00;;;;;;5055148;28;20428;-52
2023/02/14 03:52:25;;;;;;;7.00;5.40;;;5.40;84.10;;;;;;5055454;28;20033;-48
2023/02/14 03:54:54;;;;;;;6.10;5.20;;;5.40;84.20;;;;;;5055487;28;20017;-49
2023/02/14 03:57:28;;;;;;;6.80;5.50;;;5.40;84.40;;;;;;5055041;28;20119;-49
2023/02/14 03:59:54;;;;;;;5.47;4.57;;;5.40;84.50;;;;;;5054845;28;20028;-52
2023/02/14 04:02:34;;;;;;;6.03;4.88;;;5.40;84.70;;;;;;5055011;28;20033;-48
2023/02/14 04:05:04;;;;;;;6.65;4.93;;;5.40;84.80;;;;;;5055310;28;20417;-50
2023/02/14 04:07:29;;;;;;;7.05;5.22;;;5.40;85.10;;;;;;5055329;28;20086;-48
2023/02/14 04:09:55;;;;;;;7.22;5.53;;;5.30;85.30;;;;;;5055748;28;20116;-54
2023/02/14 04:12:20;;;;;;;7.53;6.25;;;5.30;85.60;;;;;;5054762;28;20021;-48
2023/02/14 04:14:46;;;;;;;7.15;5.47;;;5.30;85.90;;;;;;5055078;28;20036;-51
2023/02/14 04:19:56;;;;;;;6.80;5.30;;;5.20;86.50;;;;;;5054465;28;20090;-58
2023/02/14 04:22:22;;;;;;;7.85;6.00;;;5.10;86.70;;;;;;5054244;28;20056;-60
2023/02/14 04:24:47;;;;;;;6.47;5.30;;;5.10;87.60;;;;;;5054853;28;20041;-61
2023/02/14 04:27:13;;;;;;;6.97;5.03;;;5.10;87.10;;;;;;5054365;28;20029;-60
2023/02/14 04:29:47;;;;;;;6.40;4.93;;;5.00;87.30;;;;;;5054187;28;20025;-60
2023/02/14 04:32:16;;;;;;;6.20;5.30;;;5.00;87.60;;;;;;5054493;28;20065;-60
2023/02/14 04:34:42;;;;;;;7.35;5.50;;;5.00;87.80;;;;;;5054964;28;20037;-60
2023/02/14 04:37:08;;;;;;;6.40;4.88;;;4.90;88.00;;;;;;5054398;28;20032;-61
2023/02/14 04:39:34;;;;;;;6.38;4.53;;;4.90;88.30;;;;;;5053912;28;20057;-61
2023/02/14 04:42:01;;;;;;;5.78;4.78;;;4.90;88.40;;;;;;5054780;28;20052;-63
2023/02/14 04:44:26;;;;;;;6.32;4.75;;;4.90;88.50;;;;;;5054430;28;20025;-62
2023/02/14 04:46:52;;;;;;;6.22;4.65;;;4.90;88.70;;;;;;5054273;28;20036;-62
2023/02/14 04:49:18;;;;;;;6.63;5.05;;;4.90;88.80;;;;;;5054443;28;20414;-62
2023/02/14 04:51:44;;;;;;;6.40;4.65;;;4.90;89.00;;;;;;5053912;28;20029;-54
2023/02/14 04:54:10;;;;;;;6.68;4.80;;;4.90;89.20;;;;;;5054148;28;20032;-53
2023/02/14 04:56:36;;;;;;;6.60;4.65;;;4.90;89.50;;;;;;5053885;28;20104;-54
2023/02/14 04:59:01;;;;;;;7.15;5.13;;;4.90;89.70;;;;;;5054620;28;20052;-55
2023/02/14 05:01:27;;;;;;;5.88;4.72;;;4.90;89.80;;;;;;5054648;28;20028;-60
2023/02/14 05:03:53;;;;;;;6.00;5.32;;;4.90;89.90;;;;;;5054193;28;20372;-60
2023/02/14 05:06:18;;;;;;;7.45;5.50;;;4.90;90.00;;;;;;5036784;28;20025;-50
2023/02/14 05:08:44;;;;;;;6.70;5.38;;;4.90;90.10;;;;;;5053415;28;20029;-49
2023/02/14 05:11:10;;;;;;;6.18;5.25;;;4.90;90.20;;;;;;5054117;28;20067;-62
2023/02/14 05:13:35;;;;;;;6.65;4.78;;;4.80;90.30;;;;;;5053718;28;20036;-62
2023/02/14 05:16:01;;;;;;;6.95;5.53;;;4.80;90.40;;;;;;5053960;28;20025;-62
2023/02/14 05:18:27;;;;;;;7.07;5.45;;;4.80;90.40;;;;;;5054032;28;20038;-62
2023/02/14 05:20:53;;;;;;;6.53;5.10;;;4.80;90.50;;;;;;5053765;28;20044;-54
2023/02/14 05:23:20;;;;;;;7.57;5.45;;;4.80;90.60;;;;;;5053157;28;20136;-55
2023/02/14 05:25:48;;;;;;;6.03;4.82;;;4.80;90.60;;;;;;5054409;28;20449;-53
2023/02/14 05:28:14;;;;;;;5.10;4.45;;;4.80;90.70;;;;;;5053920;28;20041;-54
2023/02/14 05:30:39;;;;;;;5.78;4.43;;;4.80;90.70;;;;;;5045685;28;20543;-65
2023/02/14 05:33:05;;;;;;;7.50;4.95;;;4.80;90.70;;;;;;5034138;28;20029;-64
2023/02/14 05:35:31;;;;;;;5.90;5.03;;;4.80;90.80;;;;;;5033937;28;20364;-63
2023/02/14 05:37:57;;;;;;;5.90;4.60;;;4.80;90.80;;;;;;5037606;28;20029;-63
2023/02/14 05:40:24;;;;;;;7.20;5.10;;;4.80;90.80;;;;;;5054181;28;20033;-64
2023/02/14 05:42:51;;;;;;;7.65;5.40;;;4.70;90.90;;;;;;5053595;28;20025;-64
2023/02/14 05:45:17;;;;;;;6.60;5.22;;;4.70;90.90;;;;;;5054162;28;20091;-64
2023/02/14 05:47:42;;;;;;;6.55;4.45;;;4.70;90.90;;;;;;5053474;28;20029;-64
2023/02/14 05:50:09;;;;;;;8.30;5.43;;;4.70;91.00;;;;;;5057127;28;20481;-65
2023/02/14 05:52:35;;;;;;;6.97;4.82;;;4.70;91.20;;;;;;5057617;28;20024;-60
2023/02/14 05:55:00;;;;;;;7.55;4.72;;;4.70;91.20;;;;;;5057501;28;20100;-60
2023/02/14 05:57:26;;;;;;;5.35;4.32;;;4.70;91.20;;;;;;5057496;28;20137;-51
2023/02/14 05:59:52;;;;;;;7.60;4.80;;;4.70;91.10;;;;;;5057123;28;20157;-52
2023/02/14 06:02:17;;;;;;;6.40;4.50;;;4.70;91.20;;;;;;5057186;28;20017;-64
2023/02/14 06:04:43;;;;;;;5.57;4.28;;;4.70;91.10;;;;;;5057553;28;20341;-63
2023/02/14 06:07:08;;;;;;;5.50;4.50;;;4.70;91.10;;;;;;5056988;28;20044;-60
2023/02/14 06:09:35;;;;;;;6.75;4.32;;;4.70;91.10;;;;;;5057127;28;20108;-61
2023/02/14 06:12:00;;;;;;;5.70;4.50;;;4.70;91.00;;;;;;5056932;28;20459;-63
2023/02/14 06:14:26;;;;;;;6.05;4.57;;;4.70;91.10;;;;;;5057116;28;20033;-64
2023/02/14 06:16:52;;;;;;;6.30;4.70;;;4.70;91.10;;;;;;5057394;28;20029;-60
2023/02/14 06:19:17;;;;;;;5.97;4.28;;;4.70;91.10;;;;;;5057249;28;20117;-60
2023/02/14 06:21:43;;;;;;;5.60;4.00;;;4.70;91.10;;;;;;5057134;28;20529;-52
2023/02/14 06:24:09;;;;;;;5.32;4.13;;;4.70;91.10;;;;;;5056664;28;20079;-49
2023/02/14 06:26:34;;;;;;;4.55;3.65;;;4.70;91.10;;;;;;5057304;28;20020;-52
2023/02/14 06:29:02;;;;;;;5.03;3.80;;;4.70;91.00;;;;;;5039423;28;20087;-50
2023/02/14 06:31:27;;;;;;;5.30;3.75;;;4.70;91.00;;;;;;5056381;28;20025;-63
2023/02/14 06:33:53;;;;;;;6.10;3.50;;;4.70;90.90;;;;;;5056155;28;20079;-63
2023/02/14 06:36:20;;;;;;;5.15;4.30;;;4.80;90.80;;;;;;5054638;28;20062;-56
2023/02/14 06:38:49;;;;;;;5.25;4.10;;;4.80;90.80;;;;;;5036946;28;20048;-55
2023/02/14 06:41:16;;;;;;;5.13;4.32;;;4.80;90.80;;;;;;5036731;28;20513;-62
2023/02/14 06:43:43;;;;;;;5.53;4.32;;;4.80;90.70;;;;;;5036864;28;20049;-63
2023/02/14 06:46:09;;;;;;;5.78;3.85;;;4.80;90.70;;;;;;5035901;28;20036;-60
2023/02/14 06:48:35;;;;;;;5.25;4.07;;;4.70;90.60;;;;;;5056431;28;20039;-62
2023/02/14 06:51:01;;;;;;;4.63;3.90;;;4.80;90.60;;;;;;5056620;28;20021;-63
2023/02/14 06:53:27;;;;;;;3.90;3.50;;;4.80;90.90;;;;;;5056626;28;20060;-63
2023/02/14 06:55:53;;;;;;;4.82;3.97;;;4.80;90.50;;;;;;5056019;28;20048;-63
2023/02/14 06:58:18;;;;;;;4.47;3.58;;;4.80;90.50;;;;;;5056223;28;20455;-63
2023/02/14 07:00:45;;;;;;;4.88;4.38;;;4.80;90.40;;;;;;5037723;28;20032;-63
2023/02/14 07:03:10;;;;;;;4.60;3.90;;;4.80;90.40;;;;;;5056121;28;20053;-63
2023/02/14 07:05:36;;;;;;;5.68;4.22;;;4.80;90.30;;;;;;5056966;28;20063;-63
2023/02/14 07:08:02;;;;;;;4.50;3.80;;;4.90;90.20;;;;;;5056540;28;20466;-63
2023/02/14 07:10:27;;;;;;;6.95;4.82;;;4.90;90.10;;;;;;5056123;28;20414;-62
2023/02/14 07:12:53;;;;;;;4.43;3.75;;;4.90;90.00;;;;;;5056176;28;20467;-61
2023/02/14 07:15:19;;;;;;;4.47;3.95;;;5.00;90.00;;;;;;5056085;28;20447;-61
2023/02/14 07:17:45;;;;;;;4.72;3.78;;;5.00;89.80;;;;;;5055469;28;20029;-62
2023/02/14 07:20:12;;;;;;;4.60;3.72;;;5.00;89.70;;;;;;5055735;28;20033;-62
2023/02/14 07:22:38;;;;;;;3.85;3.45;;;5.00;89.60;;;;;;5056226;28;20422;-53
2023/02/14 07:25:06;;;;;;;6.32;4.13;;;5.00;89.50;;;;;;5055925;28;20028;-54
2023/02/14 07:27:32;;;;;;;4.82;3.70;;;5.00;89.40;;;;;;5055846;28;20067;-54
2023/02/14 07:29:58;;;;;;;4.75;3.78;;;5.00;89.40;;;;;;5055657;28;20062;-53
2023/02/14 07:32:23;;;;;;;4.25;3.60;;;5.00;89.20;;;;;;5055966;28;20027;-54
2023/02/14 07:34:49;;;;;;;5.32;3.42;;;5.10;89.00;;;;;;5055988;28;20029;-53
2023/02/14 07:37:16;;;;;;;4.18;3.30;;;5.10;88.90;;;;;;5055027;28;20060;-53
2023/02/14 07:39:43;;;;;;;5.25;3.70;;;5.10;88.80;;;;;;5055570;28;20029;-54
2023/02/14 07:42:09;;;;;;;4.22;3.33;;;5.20;88.70;;;;;;5055178;28;20029;-53
2023/02/14 07:44:37;;;;;;;5.55;3.67;;;5.10;88.30;;;;;;5055353;28;20067;-54
2023/02/14 07:47:07;;;;;;;7.70;3.45;;;5.20;88.10;;;;;;5037918;28;20033;-53
2023/02/14 07:49:33;;;;;;;4.28;3.60;;;5.20;87.70;;;;;;5055388;28;20059;-56
2023/02/14 07:51:58;;;;;;;4.88;3.28;;;5.20;87.20;;;;;;5055358;28;20514;-54
2023/02/14 07:54:24;;;;;;;4.72;3.50;;;5.30;87.00;;;;;;5055229;28;20116;-55
2023/02/14 07:56:49;;;;;;;3.70;3.35;;;5.30;86.70;;;;;;5041523;28;20057;-54
2023/02/14 07:59:15;;;;;;;3.88;3.30;;;5.40;86.60;;;;;;5035363;28;20061;-55
2023/02/14 08:01:41;;;;;;;4.47;3.55;;;5.40;86.30;;;;;;5035029;28;20030;-55
2023/02/14 08:04:08;;;;;;;4.70;3.40;;;5.40;86.20;;;;;;5035259;28;20041;-51
2023/02/14 08:06:33;;;;;;;4.25;3.40;;;5.40;85.90;;;;;;5034588;28;20045;-53
2023/02/14 08:08:59;;;;;;;4.40;3.28;;;5.50;85.80;;;;;;5035357;28;20029;-49
2023/02/14 08:14:09;;;;;;;3.90;3.30;;;5.50;85.10;;;;;;5034737;28;20079;-54
2023/02/14 08:16:36;;;;;;;4.45;3.22;;;5.60;85.00;;;;;;5034965;28;20478;-55
2023/02/14 08:19:03;;;;;;;3.92;3.50;;;5.60;84.80;;;;;;5034439;28;20029;-56
2023/02/14 08:21:28;;;;;;;4.00;3.58;;;5.60;84.60;;;;;;5034877;28;20040;-51
2023/02/14 08:23:54;;;;;;;5.25;3.20;;;5.60;84.50;;;;;;5034303;28;20021;-54
2023/02/14 08:26:20;;;;;;;4.05;3.53;;;5.50;84.50;;;;;;5034891;28;20071;-54
2023/02/14 08:28:46;;;;;;;4.32;3.58;;;5.60;84.60;;;;;;5034677;28;20080;-53
2023/02/14 08:31:12;;;;;;;5.45;3.35;;;5.60;84.40;;;;;;5034298;28;20032;-56
2023/02/14 08:33:37;;;;;;;3.08;2.85;;;5.60;84.00;;;;;;5034702;28;20444;-53
2023/02/14 08:36:03;;;;;;;4.20;3.00;;;5.60;83.90;;;;;;5034911;28;20366;-54
2023/02/14 08:38:29;;;;;;;3.78;3.13;;;5.60;83.60;;;;;;5016998;28;20119;-52
2023/02/14 08:41:00;;;;;;;4.30;3.28;;;5.60;83.50;;;;;;5034267;28;20041;-56
2023/02/14 08:43:26;;;;;;;6.00;3.25;;;5.60;83.20;;;;;;5034843;28;20459;-53
2023/02/14 08:45:52;;;;;;;4.57;3.40;;;5.60;83.10;;;;;;5034828;28;20037;-55
2023/02/14 08:48:18;;;;;;;5.70;2.97;;;5.60;82.80;;;;;;5034475;28;20065;-54
2023/02/14 08:50:44;;;;;;;5.22;2.90;;;5.60;82.60;;;;;;5034254;28;20053;-52
2023/02/14 08:53:12;;;;;;;4.25;3.28;;;5.70;82.40;;;;;;5033833;28;20104;-53
2023/02/14 08:55:38;;;;;;;4.30;2.95;;;5.70;82.10;;;;;;5034613;28;20032;-54
2023/02/14 08:58:04;;;;;;;3.60;2.80;;;5.70;82.00;;;;;;5034203;28;20444;-54
2023/02/14 09:00:31;;;;;;;4.22;2.75;;;5.70;81.70;;;;;;5033858;28;20029;-60
2023/02/14 09:02:57;;;;;;;3.72;2.90;;;5.70;81.60;;;;;;5033877;28;20036;-61
2023/02/14 09:05:24;;;;;;;2.97;2.72;;;5.80;81.30;;;;;;5033902;28;20419;-61
2023/02/14 09:07:50;;;;;;;3.13;2.83;;;5.80;80.90;;;;;;5034227;28;20030;-61
2023/02/14 09:10:17;;;;;;;3.50;2.90;;;5.80;80.30;;;;;;5033845;28;20403;-61
2023/02/14 09:12:44;;;;;;;2.90;2.70;;;5.80;80.00;;;;;;5033707;28;20041;-63
2023/02/14 09:15:09;;;;;;;3.78;2.85;;;5.90;80.00;;;;;;5033636;28;20033;-59
2023/02/14 09:17:36;;;;;;;3.47;2.97;;;5.90;79.60;;;;;;5034284;28;20087;-60
2023/02/14 09:20:02;;;;;;;3.72;2.70;;;5.90;79.30;;;;;;5033712;28;20125;-62
2023/02/14 09:22:28;;;;;;;3.33;2.80;;;5.90;78.80;;;;;;5034275;28;20136;-61
2023/02/14 09:24:53;;;;;;;3.22;2.65;;;5.90;78.60;;;;;;5033495;28;20430;-60
2023/02/14 09:27:19;;;;;;;4.15;2.70;;;5.90;78.60;;;;;;5033501;28;20037;-60
2023/02/14 09:29:45;;;;;;;3.10;2.80;;;5.90;78.20;;;;;;5033810;28;20033;-59
2023/02/14 09:32:10;;;;;;;5.20;2.95;;;5.90;78.00;;;;;;5034016;28;20064;-59
2023/02/14 09:34:36;;;;;;;3.75;2.78;;;5.90;78.00;;;;;;5033930;28;20464;-60
2023/02/14 09:39:46;;;;;;;3.20;2.70;;;5.80;77.30;;;;;;5033514;28;20446;-60
2023/02/14 09:42:44;;;;;;;3.83;2.58;;;5.80;77.50;;;;;;5033155;28;20034;-57
2023/02/14 09:45:21;;;;;;;3.45;2.65;;;5.80;77.30;;;;;;5034086;28;20033;-57
2023/02/14 09:48:18;;;;;;;2.58;2.38;;;5.70;77.40;;;;;;5033655;28;20064;-61
2023/02/14 09:50:54;;;;;;;2.88;2.40;;;5.70;77.20;;;;;;5033441;28;20053;-62
2023/02/14 09:53:32;;;;;;;3.65;2.83;;;5.80;77.20;;;;;;5033109;28;20017;-60
2023/02/14 09:56:15;;;;;;;2.60;2.38;;;5.70;76.90;;;;;;5033271;28;20384;-60
2023/02/14 09:58:49;;;;;;;2.75;2.55;;;5.80;76.50;;;;;;5033601;28;20120;-61
2023/02/14 10:01:24;;;;;;;2.97;2.47;;;5.80;76.10;;;;;;5033230;28;20029;-61
2023/02/14 10:04:05;;;;;;;2.70;2.50;;;5.80;75.80;;;;;;5033377;28;20049;-61
2023/02/14 10:06:52;;;;;;;4.25;2.50;;;5.80;75.60;;;;;;5034056;28;20091;-62
2023/02/14 10:09:50;;;;;;;3.33;2.50;;;5.80;75.80;;;;;;5033904;28;20041;-62
2023/02/14 10:12:24;;;;;;;3.78;2.42;;;5.80;76.00;;;;;;5015428;28;20044;-60
2023/02/14 10:14:52;;;;;;;2.75;2.33;;;5.80;76.10;;;;;;5033399;28;20482;-61
2023/02/14 10:17:27;;;;;;;2.58;2.33;;;5.80;76.00;;;;;;5033085;28;20387;-60
2023/02/14 10:20:03;;;;;;;3.33;2.50;;;5.80;75.60;;;;;;5032925;28;20120;-60
2023/02/14 10:22:43;;;;;;;3.13;2.65;;;5.80;75.40;;;;;;5033268;28;20056;-61
2023/02/14 10:25:44;;;;;;;3.50;2.53;;;5.80;75.10;;;;;;5033134;28;20487;-60
2023/02/14 10:28:13;;;;;;;2.78;2.25;;;5.80;75.00;;;;;;4990915;28;20054;-60
2023/02/14 10:30:48;;;;;;;3.28;2.60;;;5.80;75.20;;;;;;5033276;28;20033;-59
2023/02/14 10:33:18;;;;;;;3.75;2.60;;;5.80;75.30;;;;;;5033064;28;20030;-60
2023/02/14 10:35:56;;;;;;;4.47;2.72;;;5.80;75.30;;;;;;5035092;28;20061;-58
2023/02/14 10:38:33;;;;;;;3.08;2.38;;;5.90;75.40;;;;;;5036733;28;20381;-59
2023/02/14 10:41:37;;;;;;;4.60;2.40;;;5.90;75.50;;;;;;5036854;28;20468;-61
2023/02/14 10:44:40;;;;;;;3.38;2.78;;;5.90;75.10;;;;;;5036817;28;20036;-61
2023/02/14 10:47:17;;;;;;;4.38;2.78;;;6.00;74.90;;;;;;5036368;28;20511;-61
2023/02/14 10:50:04;;;;;;;3.90;2.75;;;5.90;74.60;;;;;;5036127;28;20104;-61
2023/02/14 10:52:49;;;;;;;3.92;2.90;;;5.90;74.70;;;;;;5037187;28;20528;-62
2023/02/14 10:55:44;;;;;;;3.60;2.70;;;5.90;74.90;;;;;;5036555;28;20367;-62
2023/02/14 10:58:14;;;;;;;3.10;2.55;;;5.90;75.00;;;;;;5000260;28;20124;-63
2023/02/14 11:00:54;;;;;;;3.60;2.72;;;5.90;75.30;;;;;;5036482;28;20091;-62
2023/02/14 11:03:21;;;;;;;3.75;2.50;;;5.90;75.10;;;;;;5035904;28;20108;-62
2023/02/14 11:05:47;;;;;;;2.60;2.40;;;5.90;75.10;;;;;;5036179;28;20033;-57
2023/02/14 11:08:35;;;;;;;2.85;2.40;;;5.90;75.10;;;;;;5036819;28;20037;-57
2023/02/14 11:11:13;;;;;;;2.50;2.30;;;5.80;74.90;;;;;;5036293;28;20033;-57
2023/02/14 11:13:39;;;;;;;3.38;2.30;;;5.80;75.10;;;;;;5036104;28;20049;-56
2023/02/14 11:16:08;;;;;;;3.75;2.47;;;5.80;75.10;;;;;;5036177;28;20025;-60
2023/02/14 11:18:38;;;;;;;2.75;2.25;;;5.80;74.90;;;;;;5035613;28;20083;-60
2023/02/14 11:21:20;;;;;;;3.78;2.53;;;5.90;75.00;;;;;;5035613;28;20036;-60
2023/02/14 11:23:49;;;;;;;2.95;2.50;;;5.90;74.80;;;;;;5035790;28;20048;-60
2023/02/14 11:26:30;;;;;;;2.90;2.60;;;5.90;74.50;;;;;;5035700;28;20460;-63
2023/02/14 11:28:56;;;;;;;3.15;2.50;;;5.90;74.20;;;;;;5035404;28;20033;-63
2023/02/14 11:31:31;;;;;;;2.60;2.40;;;5.90;74.10;;;;;;5035335;28;20040;-65
2023/02/14 11:33:57;;;;;;;3.63;2.60;;;5.90;74.00;;;;;;5036140;28;20428;-62
2023/02/14 11:36:24;;;;;;;4.28;2.45;;;5.90;73.90;;;;;;5035723;28;20025;-64
2023/02/14 11:39:12;;;;;;;3.05;2.50;;;5.80;73.80;;;;;;5035486;28;20041;-62
2023/02/14 11:41:54;;;;;;;4.45;2.80;;;5.80;73.80;;;;;;5035185;28;20036;-66
2023/02/14 11:44:23;;;;;;;2.60;2.40;;;5.80;73.80;;;;;;5035200;28;20080;-63
2023/02/14 11:46:50;;;;;;;2.40;2.20;;;5.80;73.80;;;;;;5034844;28;20033;-63
2023/02/14 11:49:32;;;;;;;2.50;2.30;;;5.80;74.00;;;;;;5035129;28;20045;-62
2023/02/14 11:52:07;;;;;;;2.45;2.15;;;5.70;73.80;;;;;;5036085;28;20034;-63
2023/02/14 11:54:47;;;;;;;2.22;2.10;;;5.70;73.90;;;;;;5035266;28;20025;-63
2023/02/14 11:57:17;;;;;;;3.28;2.50;;;5.70;74.10;;;;;;5035198;28;20028;-63
2023/02/14 11:59:52;;;;;;;2.72;2.53;;;5.60;74.50;;;;;;5035108;28;20025;-63
2023/02/14 12:02:26;;;;;;;3.80;2.47;;;5.50;75.20;;;;;;5035262;28;20033;-63
2023/02/14 12:04:56;;;;;;;3.25;2.58;;;5.50;75.80;;;;;;5035226;28;20033;-63
2023/02/14 12:07:28;;;;;;;3.60;2.50;;;5.40;76.30;;;;;;5035290;28;20369;-62
2023/02/14 12:10:05;;;;;;;2.47;2.20;;;5.40;76.70;;;;;;5035207;28;20539;-65
2023/02/14 12:12:32;;;;;;;2.60;2.40;;;5.40;77.00;;;;;;5035169;28;20061;-63
2023/02/14 12:15:36;;;;;;;3.15;2.50;;;5.40;77.40;;;;;;5034791;28;20349;-63
2023/02/14 12:18:32;;;;;;;6.15;2.45;;;5.40;77.50;;;;;;4994196;28;20033;-62
2023/02/14 12:21:15;;;;;;;5.38;2.58;;;5.40;77.60;;;;;;5034866;28;20040;-62
2023/02/14 12:24:01;;;;;;;5.47;2.65;;;5.40;77.40;;;;;;5034622;28;20041;-62
2023/02/14 12:26:37;;;;;;;2.97;2.20;;;5.40;77.30;;;;;;5035069;28;20489;-63
2023/02/14 12:29:44;;;;;;;2.97;2.47;;;5.40;77.00;;;;;;5034608;28;20041;-63
2023/02/14 12:32:30;;;;;;;2.85;2.30;;;5.40;76.60;;;;;;4954617;29;20046;-63
2023/02/14 12:35:14;;;;;;;2.90;2.60;;;5.40;76.40;;;;;;5028442;28;20127;-62
2023/02/14 12:38:01;;;;;;;2.92;2.22;;;5.40;76.50;;;;;;5034209;28;20018;-62
2023/02/14 12:40:53;;;;;;;3.72;2.58;;;5.40;76.40;;;;;;5034963;28;20037;-63
2023/02/14 12:43:19;;;;;;;;;;;5.40;76.40;;;;;;5035035;28;20029;-62
2023/02/14 12:46:22;;;;;;;3.80;2.67;;;5.30;76.10;;;;;;5034723;28;19912;-63
2023/02/14 12:48:59;;;;;;;2.40;2.20;;;5.40;76.00;;;;;;5034368;28;20045;-64
2023/02/14 12:51:38;;;;;;;3.78;2.20;;;5.40;76.00;;;;;;5034601;28;20033;-64
2023/02/14 12:54:44;;;;;;;2.55;2.17;;;5.40;75.90;;;;;;5016528;28;20526;-64
2023/02/14 12:57:29;;;;;;;2.58;2.38;;;5.40;75.70;;;;;;5034035;28;20034;-64
2023/02/14 13:00:13;;;;;;;2.58;2.38;;;5.40;75.80;;;;;;5034172;28;20463;-65
2023/02/14 13:03:15;;;;;;;2.50;2.30;;;5.40;75.80;;;;;;5033963;28;20032;-64
2023/02/14 13:05:47;;;;;;;3.60;2.58;;;5.30;75.20;;;;;;5034360;28;20061;-64
2023/02/14 13:08:40;;;;;;;2.70;2.50;;;5.30;75.30;;;;;;5034213;28;20038;-63
2023/02/14 13:11:28;;;;;;;2.75;2.22;;;5.30;75.20;;;;;;5034241;28;20084;-63
2023/02/14 13:14:27;;;;;;;4.18;2.63;;;5.30;75.20;;;;;;5033679;28;20022;-63
2023/02/14 13:17:26;;;;;;;2.40;2.22;;;5.30;75.40;;;;;;5034320;28;20026;-63
2023/02/14 13:20:05;;;;;;;2.80;2.15;;;5.30;75.20;;;;;;5034531;28;20034;-64
2023/02/14 13:22:32;;;;;;;2.72;2.28;;;5.30;75.30;;;;;;5033262;28;20079;-64
2023/02/14 13:25:09;;;;;;;2.95;2.10;;;5.20;75.70;;;;;;5034190;28;20132;-64
2023/02/14 13:27:40;;;;;;;2.50;2.30;;;5.20;74.90;;;;;;5034196;28;20029;-64
2023/02/14 13:30:26;;;;;;;2.95;2.30;;;5.30;74.90;;;;;;5033279;28;20424;-65
2023/02/14 13:32:53;;;;;;;2.72;2.40;;;5.20;74.60;;;;;;5034085;28;20026;-63
2023/02/14 13:35:21;;;;;;;3.50;2.30;;;5.20;74.50;;;;;;5033741;28;20112;-63
2023/02/14 13:37:52;;;;;;;2.60;2.40;;;5.20;74.40;;;;;;5034028;28;20385;-64
2023/02/14 13:40:22;;;;;;;2.80;2.28;;;5.20;74.20;;;;;;5034032;28;20445;-64
2023/02/14 13:42:48;;;;;;;2.13;2.03;;;5.20;74.20;;;;;;5033588;28;20037;-64
2023/02/14 13:45:29;;;;;;;2.58;2.38;;;5.10;74.10;;;;;;5033636;28;20025;-65